sensor_id;sensor_type;location;lat;lon;timestamp;pressure;altitude;pressure_sealevel;temperature;humidity
6136;BME280;24008;42.664;23.372;2023-04-04T00:01:24;93316.66;;;6.90;100.00
6136;BME280;24008;42.664;23.372;2023-04-04T00:03:51;93308.25;;;6.89;100.00
6136;BME280;24008;42.664;23.372;2023-04-04T00:06:18;93282.97;;;6.71;100.00
6136;BME280;24008;42.664;23.372;2023-04-04T00:08:45;93255.78;;;6.56;100.00
6136;BME280;24008;42.664;23.372;2023-04-04T00:11:13;93314.47;;;6.95;100.00
6136;BME280;24008;42.664;23.372;2023-04-04T00:13:40;93316.56;;;6.99;100.00
6136;BME280;24008;42.664;23.372;2023-04-04T00:16:07;93326.41;;;7.02;100.00
6136;BME280;24008;42.664;23.372;2023-04-04T00:18:34;93321.31;;;7.02;100.00
6136;BME280;24008;42.664;23.372;2023-04-04T00:21:01;93326.91;;;7.06;100.00
6136;BME280;24008;42.664;23.372;2023-04-04T00:23:28;93324.84;;;7.09;100.00
6136;BME280;24008;42.664;23.372;2023-04-04T00:25:54;93287.78;;;6.91;100.00
6136;BME280;24008;42.664;23.372;2023-04-04T00:28:22;93280.28;;;6.73;100.00
6136;BME280;24008;42.664;23.372;2023-04-04T00:30:49;93320.41;;;7.11;100.00
6136;BME280;24008;42.664;23.372;2023-04-04T00:33:16;93318.03;;;7.10;100.00
6136;BME280;24008;42.664;23.372;2023-04-04T00:35:43;93259.97;;;6.73;100.00
6136;BME280;24008;42.664;23.372;2023-04-04T00:38:10;93282.06;;;6.88;100.00
6136;BME280;24008;42.664;23.372;2023-04-04T00:40:40;93282.84;;;6.89;100.00
6136;BME280;24008;42.664;23.372;2023-04-04T00:43:07;93174.78;;;6.28;100.00
6136;BME280;24008;42.664;23.372;2023-04-04T00:45:35;93302.63;;;7.11;100.00
6136;BME280;24008;42.664;23.372;2023-04-04T00:48:03;93290.41;;;7.15;100.00
6136;BME280;24008;42.664;23.372;2023-04-04T00:50:30;93294.38;;;7.17;100.00
6136;BME280;24008;42.664;23.372;2023-04-04T00:52:57;93215.88;;;6.74;100.00
6136;BME280;24008;42.664;23.372;2023-04-04T00:55:24;93278.34;;;7.17;100.00
6136;BME280;24008;42.664;23.372;2023-04-04T00:57:51;93191.38;;;6.65;100.00
6136;BME280;24008;42.664;23.372;2023-04-04T01:00:19;93206.34;;;6.76;100.00
6136;BME280;24008;42.664;23.372;2023-04-04T01:02:47;93277.25;;;7.19;100.00
6136;BME280;24008;42.664;23.372;2023-04-04T01:05:15;93279.28;;;7.16;100.00
6136;BME280;24008;42.664;23.372;2023-04-04T01:07:41;93255.63;;;6.99;100.00
6136;BME280;24008;42.664;23.372;2023-04-04T01:10:09;93123.50;;;6.08;100.00
6136;BME280;24008;42.664;23.372;2023-04-04T01:12:36;93264.47;;;6.95;100.00
6136;BME280;24008;42.664;23.372;2023-04-04T01:15:04;93294.69;;;7.14;100.00
6136;BME280;24008;42.664;23.372;2023-04-04T01:17:30;93294.06;;;7.12;100.00
6136;BME280;24008;42.664;23.372;2023-04-04T01:20:02;93223.31;;;6.75;100.00
6136;BME280;24008;42.664;23.372;2023-04-04T01:22:30;93306.63;;;7.22;100.00
6136;BME280;24008;42.664;23.372;2023-04-04T01:24:59;93227.72;;;6.65;100.00
6136;BME280;24008;42.664;23.372;2023-04-04T01:27:28;93307.72;;;7.19;100.00
6136;BME280;24008;42.664;23.372;2023-04-04T01:29:55;93250.19;;;6.86;100.00
6136;BME280;24008;42.664;23.372;2023-04-04T01:32:27;93248.28;;;6.88;100.00
6136;BME280;24008;42.664;23.372;2023-04-04T01:35:04;93300.75;;;7.21;100.00
6136;BME280;24008;42.664;23.372;2023-04-04T01:37:37;93306.13;;;7.18;100.00
6136;BME280;24008;42.664;23.372;2023-04-04T01:40:11;93300.75;;;7.21;100.00
6136;BME280;24008;42.664;23.372;2023-04-04T01:42:44;93299.00;;;7.22;100.00
6136;BME280;24008;42.664;23.372;2023-04-04T01:45:11;93297.56;;;7.19;100.00
6136;BME280;24008;42.664;23.372;2023-04-04T01:47:38;93292.00;;;7.16;100.00
6136;BME280;24008;42.664;23.372;2023-04-04T01:50:06;93103.50;;;6.05;100.00
6136;BME280;24008;42.664;23.372;2023-04-04T01:52:34;93196.75;;;6.54;100.00
6136;BME280;24008;42.664;23.372;2023-04-04T01:55:01;93284.34;;;7.08;100.00
6136;BME280;24008;42.664;23.372;2023-04-04T01:57:28;93116.97;;;5.98;100.00
6136;BME280;24008;42.664;23.372;2023-04-04T01:59:57;93273.38;;;6.99;100.00
6136;BME280;24008;42.664;23.372;2023-04-04T02:02:23;93270.34;;;6.88;100.00
6136;BME280;24008;42.664;23.372;2023-04-04T02:04:50;93187.94;;;6.24;100.00
6136;BME280;24008;42.664;23.372;2023-04-04T02:07:18;93276.16;;;6.72;100.00
6136;BME280;24008;42.664;23.372;2023-04-04T02:09:45;93286.16;;;6.73;100.00
6136;BME280;24008;42.664;23.372;2023-04-04T02:12:11;93189.53;;;6.25;100.00
6136;BME280;24008;42.664;23.372;2023-04-04T02:14:38;93235.81;;;6.61;100.00
6136;BME280;24008;42.664;23.372;2023-04-04T02:17:06;93266.97;;;6.79;100.00
6136;BME280;24008;42.664;23.372;2023-04-04T02:19:33;93270.44;;;6.70;100.00
6136;BME280;24008;42.664;23.372;2023-04-04T02:22:19;93269.47;;;6.63;100.00
6136;BME280;24008;42.664;23.372;2023-04-04T02:24:46;93259.13;;;6.64;100.00
6136;BME280;24008;42.664;23.372;2023-04-04T02:27:12;93232.25;;;6.45;100.00
6136;BME280;24008;42.664;23.372;2023-04-04T02:29:39;93271.34;;;6.61;100.00
6136;BME280;24008;42.664;23.372;2023-04-04T02:32:07;93264.56;;;6.69;100.00
6136;BME280;24008;42.664;23.372;2023-04-04T02:34:34;93208.09;;;6.33;100.00
6136;BME280;24008;42.664;23.372;2023-04-04T02:37:01;93071.34;;;5.38;100.00
6136;BME280;24008;42.664;23.372;2023-04-04T02:39:29;93226.22;;;6.38;100.00
6136;BME280;24008;42.664;23.372;2023-04-04T02:41:55;93272.28;;;6.60;100.00
6136;BME280;24008;42.664;23.372;2023-04-04T02:44:22;93267.53;;;6.65;100.00
6136;BME280;24008;42.664;23.372;2023-04-04T02:46:49;93237.63;;;6.42;100.00
6136;BME280;24008;42.664;23.372;2023-04-04T02:49:17;93272.63;;;6.65;100.00
6136;BME280;24008;42.664;23.372;2023-04-04T02:51:44;93267.88;;;6.70;100.00
6136;BME280;24008;42.664;23.372;2023-04-04T02:54:11;93268.69;;;6.70;100.00
6136;BME280;24008;42.664;23.372;2023-04-04T02:56:38;93127.78;;;5.82;100.00
6136;BME280;24008;42.664;23.372;2023-04-04T02:59:04;93216.06;;;6.38;100.00
6136;BME280;24008;42.664;23.372;2023-04-04T03:01:31;93207.50;;;6.39;100.00
6136;BME280;24008;42.664;23.372;2023-04-04T03:03:58;93263.97;;;6.92;100.00
6136;BME280;24008;42.664;23.372;2023-04-04T03:06:30;93236.50;;;6.79;100.00
6136;BME280;24008;42.664;23.372;2023-04-04T03:08:57;93271.00;;;7.06;100.00
6136;BME280;24008;42.664;23.372;2023-04-04T03:11:23;93261.81;;;7.13;100.00
6136;BME280;24008;42.664;23.372;2023-04-04T03:13:50;93238.13;;;6.96;100.00
6136;BME280;24008;42.664;23.372;2023-04-04T03:16:17;93182.81;;;6.58;100.00
6136;BME280;24008;42.664;23.372;2023-04-04T03:18:45;93240.69;;;6.96;100.00
6136;BME280;24008;42.664;23.372;2023-04-04T03:21:12;93266.44;;;7.17;100.00
6136;BME280;24008;42.664;23.372;2023-04-04T03:23:40;93227.50;;;7.01;100.00
6136;BME280;24008;42.664;23.372;2023-04-04T03:26:08;93262.00;;;7.19;100.00
6136;BME280;24008;42.664;23.372;2023-04-04T03:28:34;93250.38;;;7.09;100.00
6136;BME280;24008;42.664;23.372;2023-04-04T03:31:05;93226.06;;;6.98;100.00
6136;BME280;24008;42.664;23.372;2023-04-04T03:33:34;93216.22;;;6.87;100.00
6136;BME280;24008;42.664;23.372;2023-04-04T03:36:02;93238.94;;;7.05;100.00
6136;BME280;24008;42.664;23.372;2023-04-04T03:38:29;93266.13;;;7.29;100.00
6136;BME280;24008;42.664;23.372;2023-04-04T03:41:04;93207.97;;;6.85;100.00
6136;BME280;24008;42.664;23.372;2023-04-04T03:43:31;93282.31;;;7.28;100.00
6136;BME280;24008;42.664;23.372;2023-04-04T03:45:59;93275.81;;;7.25;100.00
6136;BME280;24008;42.664;23.372;2023-04-04T03:48:27;93177.94;;;6.72;100.00
6136;BME280;24008;42.664;23.372;2023-04-04T03:50:55;93277.59;;;7.33;100.00
6136;BME280;24008;42.664;23.372;2023-04-04T03:53:22;93196.50;;;6.81;100.00
6136;BME280;24008;42.664;23.372;2023-04-04T03:55:48;93265.81;;;7.32;100.00
6136;BME280;24008;42.664;23.372;2023-04-04T03:58:17;93275.03;;;7.33;100.00
6136;BME280;24008;42.664;23.372;2023-04-04T04:00:44;93166.00;;;6.65;100.00
6136;BME280;24008;42.664;23.372;2023-04-04T04:03:10;93084.38;;;6.19;100.00
6136;BME280;24008;42.664;23.372;2023-04-04T04:05:37;93208.31;;;6.98;100.00
6136;BME280;24008;42.664;23.372;2023-04-04T04:08:04;93260.75;;;7.32;100.00
6136;BME280;24008;42.664;23.372;2023-04-04T04:10:31;93117.41;;;6.43;100.00
6136;BME280;24008;42.664;23.372;2023-04-04T04:12:58;93152.69;;;6.63;100.00
6136;BME280;24008;42.664;23.372;2023-04-04T04:15:27;93261.53;;;7.32;100.00
6136;BME280;24008;42.664;23.372;2023-04-04T04:17:54;93252.97;;;7.33;100.00
6136;BME280;24008;42.664;23.372;2023-04-04T04:20:21;93264.22;;;7.31;100.00
6136;BME280;24008;42.664;23.372;2023-04-04T04:22:48;93209.84;;;6.91;100.00
6136;BME280;24008;42.664;23.372;2023-04-04T04:25:15;93276.59;;;7.26;100.00
6136;BME280;24008;42.664;23.372;2023-04-04T04:27:42;93053.34;;;5.83;100.00
6136;BME280;24008;42.664;23.372;2023-04-04T04:30:10;93285.03;;;7.26;100.00
6136;BME280;24008;42.664;23.372;2023-04-04T04:32:39;93184.44;;;6.75;100.00
6136;BME280;24008;42.664;23.372;2023-04-04T04:35:07;93249.28;;;7.19;100.00
6136;BME280;24008;42.664;23.372;2023-04-04T04:37:34;93284.41;;;7.40;100.00
6136;BME280;24008;42.664;23.372;2023-04-04T04:40:01;93294.44;;;7.42;100.00
6136;BME280;24008;42.664;23.372;2023-04-04T04:42:27;93229.53;;;6.89;100.00
6136;BME280;24008;42.664;23.372;2023-04-04T04:44:54;93321.78;;;7.48;100.00
6136;BME280;24008;42.664;23.372;2023-04-04T04:47:21;93299.22;;;7.53;100.00
6136;BME280;24008;42.664;23.372;2023-04-04T04:49:50;93298.91;;;7.56;100.00
6136;BME280;24008;42.664;23.372;2023-04-04T04:52:16;93304.63;;;7.58;100.00
6136;BME280;24008;42.664;23.372;2023-04-04T04:54:44;93232.75;;;7.07;100.00
6136;BME280;24008;42.664;23.372;2023-04-04T04:57:12;93223.31;;;6.75;100.00
6136;BME280;24008;42.664;23.372;2023-04-04T04:59:39;93311.00;;;7.70;100.00
6136;BME280;24008;42.664;23.372;2023-04-04T05:02:06;93204.47;;;7.02;100.00
6136;BME280;24008;42.664;23.372;2023-04-04T05:04:33;93283.00;;;7.62;100.00
6136;BME280;24008;42.664;23.372;2023-04-04T05:07:01;93317.00;;;7.85;100.00
6136;BME280;24008;42.664;23.372;2023-04-04T05:09:28;93324.97;;;7.90;100.00
6136;BME280;24008;42.664;23.372;2023-04-04T05:11:55;93301.91;;;7.76;100.00
6136;BME280;24008;42.664;23.372;2023-04-04T05:14:22;93328.47;;;7.97;100.00
6136;BME280;24008;42.664;23.372;2023-04-04T05:16:49;93261.72;;;7.47;100.00
6136;BME280;24008;42.664;23.372;2023-04-04T05:19:15;93333.88;;;7.94;100.00
6136;BME280;24008;42.664;23.372;2023-04-04T05:21:42;93290.16;;;7.58;100.00
6136;BME280;24008;42.664;23.372;2023-04-04T05:24:10;93339.13;;;7.85;100.00
6136;BME280;24008;42.664;23.372;2023-04-04T05:26:38;93183.03;;;6.88;100.00
6136;BME280;24008;42.664;23.372;2023-04-04T05:29:04;93331.16;;;7.88;100.00
6136;BME280;24008;42.664;23.372;2023-04-04T05:31:31;93341.03;;;7.91;100.00
6136;BME280;24008;42.664;23.372;2023-04-04T05:33:58;93335.94;;;7.99;100.00
6136;BME280;24008;42.664;23.372;2023-04-04T05:36:32;93191.47;;;7.13;100.00
6136;BME280;24008;42.664;23.372;2023-04-04T05:38:59;93351.53;;;8.12;100.00
6136;BME280;24008;42.664;23.372;2023-04-04T05:41:27;93319.41;;;8.03;100.00
6136;BME280;24008;42.664;23.372;2023-04-04T05:43:54;93297.47;;;7.94;100.00
6136;BME280;24008;42.664;23.372;2023-04-04T05:46:21;93345.00;;;8.34;100.00
6136;BME280;24008;42.664;23.372;2023-04-04T05:48:48;93331.34;;;8.19;100.00
6136;BME280;24008;42.664;23.372;2023-04-04T05:51:16;93285.69;;;8.01;100.00
6136;BME280;24008;42.664;23.372;2023-04-04T05:53:43;93333.25;;;8.41;100.00
6136;BME280;24008;42.664;23.372;2023-04-04T05:56:12;93396.53;;;8.60;100.00
6136;BME280;24008;42.664;23.372;2023-04-04T05:58:40;93199.09;;;7.70;100.00
6136;BME280;24008;42.664;23.372;2023-04-04T06:01:08;93347.38;;;8.68;100.00
6136;BME280;24008;42.664;23.372;2023-04-04T06:03:36;93296.19;;;8.39;100.00
6136;BME280;24008;42.664;23.372;2023-04-04T06:06:03;93353.25;;;8.69;100.00
6136;BME280;24008;42.664;23.372;2023-04-04T06:08:30;93350.13;;;8.42;100.00
6136;BME280;24008;42.664;23.372;2023-04-04T06:10:57;93360.91;;;8.69;100.00
6136;BME280;24008;42.664;23.372;2023-04-04T06:13:24;93367.06;;;8.74;100.00
6136;BME280;24008;42.664;23.372;2023-04-04T06:15:52;93303.00;;;8.46;100.00
6136;BME280;24008;42.664;23.372;2023-04-04T06:18:19;93328.38;;;8.79;100.00
6136;BME280;24008;42.664;23.372;2023-04-04T06:20:48;93363.63;;;9.06;100.00
6136;BME280;24008;42.664;23.372;2023-04-04T06:23:15;93356.94;;;9.13;100.00
6136;BME280;24008;42.664;23.372;2023-04-04T06:25:42;93276.56;;;8.55;100.00
6136;BME280;24008;42.664;23.372;2023-04-04T06:28:09;93362.66;;;9.07;100.00
6136;BME280;24008;42.664;23.372;2023-04-04T06:30:40;93281.94;;;8.60;100.00
6136;BME280;24008;42.664;23.372;2023-04-04T06:33:08;93309.59;;;8.72;100.00
6136;BME280;24008;42.664;23.372;2023-04-04T06:35:35;93349.50;;;8.95;100.00
6136;BME280;24008;42.664;23.372;2023-04-04T06:38:02;93259.41;;;8.25;100.00
6136;BME280;24008;42.664;23.372;2023-04-04T06:40:30;93149.03;;;7.63;100.00
6136;BME280;24008;42.664;23.372;2023-04-04T06:42:56;93284.69;;;8.51;100.00
6136;BME280;24008;42.664;23.372;2023-04-04T06:45:23;93397.69;;;9.13;100.00
6136;BME280;24008;42.664;23.372;2023-04-04T06:47:52;93337.19;;;8.60;100.00
6136;BME280;24008;42.664;23.372;2023-04-04T06:50:20;93406.41;;;8.63;100.00
6136;BME280;24008;42.664;23.372;2023-04-04T06:52:47;93361.22;;;7.92;100.00
6136;BME280;24008;42.664;23.372;2023-04-04T06:55:15;93422.59;;;7.89;100.00
6136;BME280;24008;42.664;23.372;2023-04-04T06:57:42;93433.63;;;7.48;100.00
6136;BME280;24008;42.664;23.372;2023-04-04T07:00:10;93438.44;;;7.25;100.00
6136;BME280;24008;42.664;23.372;2023-04-04T07:02:36;93449.75;;;6.97;100.00
6136;BME280;24008;42.664;23.372;2023-04-04T07:05:04;93392.38;;;6.17;100.00
6136;BME280;24008;42.664;23.372;2023-04-04T07:07:32;93429.88;;;6.23;100.00
6136;BME280;24008;42.664;23.372;2023-04-04T07:09:59;93391.31;;;5.66;100.00
6136;BME280;24008;42.664;23.372;2023-04-04T07:12:26;93486.41;;;6.15;100.00
6136;BME280;24008;42.664;23.372;2023-04-04T07:14:52;93487.19;;;5.98;100.00
6136;BME280;24008;42.664;23.372;2023-04-04T07:17:19;93497.25;;;5.90;100.00
6136;BME280;24008;42.664;23.372;2023-04-04T07:19:46;93408.66;;;5.16;100.00
6136;BME280;24008;42.664;23.372;2023-04-04T07:22:13;93146.28;;;3.42;100.00
6136;BME280;24008;42.664;23.372;2023-04-04T07:24:41;93334.28;;;4.62;100.00
6136;BME280;24008;42.664;23.372;2023-04-04T07:27:08;93506.91;;;5.76;100.00
6136;BME280;24008;42.664;23.372;2023-04-04T07:29:35;93435.06;;;5.13;100.00
6136;BME280;24008;42.664;23.372;2023-04-04T07:32:02;93525.31;;;5.51;100.00
6136;BME280;24008;42.664;23.372;2023-04-04T07:34:29;93125.91;;;2.87;100.00
6136;BME280;24008;42.664;23.372;2023-04-04T07:36:56;93533.34;;;5.37;99.51
6136;BME280;24008;42.664;23.372;2023-04-04T07:39:22;93536.28;;;5.32;99.36
6136;BME280;24008;42.664;23.372;2023-04-04T07:41:50;93525.34;;;5.32;99.82
6136;BME280;24008;42.664;23.372;2023-04-04T07:44:17;93538.47;;;5.27;98.74
6136;BME280;24008;42.664;23.372;2023-04-04T07:46:44;93536.88;;;5.17;98.06
6136;BME280;24008;42.664;23.372;2023-04-04T07:49:11;93469.81;;;4.74;98.77
6136;BME280;24008;42.664;23.372;2023-04-04T07:51:38;93558.09;;;5.16;98.77
6136;BME280;24008;42.664;23.372;2023-04-04T07:54:07;93561.66;;;5.23;98.64
6136;BME280;24008;42.664;23.372;2023-04-04T07:56:34;93341.91;;;3.96;97.26
6136;BME280;24008;42.664;23.372;2023-04-04T07:59:02;93529.47;;;5.05;96.02
6136;BME280;24008;42.664;23.372;2023-04-04T08:01:29;93565.41;;;5.09;95.18
6136;BME280;24008;42.664;23.372;2023-04-04T08:03:56;93481.69;;;4.64;95.61
6136;BME280;24008;42.664;23.372;2023-04-04T08:06:23;93573.94;;;5.18;95.89
6136;BME280;24008;42.664;23.372;2023-04-04T08:08:50;93579.00;;;5.18;95.27
6136;BME280;24008;42.664;23.372;2023-04-04T08:11:17;93561.69;;;5.13;94.58
6136;BME280;24008;42.664;23.372;2023-04-04T08:13:43;93576.63;;;5.06;94.28
6136;BME280;24008;42.664;23.372;2023-04-04T08:16:12;93570.50;;;4.99;93.40
6136;BME280;24008;42.664;23.372;2023-04-04T08:18:38;93422.38;;;3.91;95.34
6136;BME280;24008;42.664;23.372;2023-04-04T08:21:05;93549.09;;;4.46;95.61
6136;BME280;24008;42.664;23.372;2023-04-04T08:23:32;93415.97;;;3.48;97.12
6136;BME280;24008;42.664;23.372;2023-04-04T08:25:59;93595.56;;;4.54;97.33
6136;BME280;24008;42.664;23.372;2023-04-04T08:28:26;93609.16;;;4.44;97.55
6136;BME280;24008;42.664;23.372;2023-04-04T08:30:53;93612.06;;;4.39;98.55
6136;BME280;24008;42.664;23.372;2023-04-04T08:33:22;93418.38;;;3.00;99.06
6136;BME280;24008;42.664;23.372;2023-04-04T08:35:48;93617.09;;;4.20;99.29
6136;BME280;24008;42.664;23.372;2023-04-04T08:38:15;93621.59;;;4.16;99.77
6136;BME280;24008;42.664;23.372;2023-04-04T08:40:45;93554.94;;;3.68;99.91
6136;BME280;24008;42.664;23.372;2023-04-04T08:43:13;93542.84;;;3.31;100.00
6136;BME280;24008;42.664;23.372;2023-04-04T08:45:42;93620.63;;;3.98;100.00
6136;BME280;24008;42.664;23.372;2023-04-04T08:48:10;93617.16;;;3.99;100.00
6136;BME280;24008;42.664;23.372;2023-04-04T08:50:39;93500.03;;;3.30;100.00
6136;BME280;24008;42.664;23.372;2023-04-04T08:53:08;93633.28;;;3.98;100.00
6136;BME280;24008;42.664;23.372;2023-04-04T08:55:36;93368.13;;;2.27;99.95
6136;BME280;24008;42.664;23.372;2023-04-04T08:58:02;93575.19;;;3.77;100.00
6136;BME280;24008;42.664;23.372;2023-04-04T09:00:29;93599.41;;;3.80;100.00
6136;BME280;24008;42.664;23.372;2023-04-04T09:03:01;93478.94;;;3.00;99.28
6136;BME280;24008;42.664;23.372;2023-04-04T09:05:30;93645.72;;;3.90;99.93
6136;BME280;24008;42.664;23.372;2023-04-04T09:07:59;93607.63;;;3.72;100.00
6136;BME280;24008;42.664;23.372;2023-04-04T09:10:26;93663.16;;;3.83;100.00
6136;BME280;24008;42.664;23.372;2023-04-04T09:12:55;93611.25;;;3.49;100.00
6136;BME280;24008;42.664;23.372;2023-04-04T09:15:22;93657.66;;;3.78;100.00
6136;BME280;24008;42.664;23.372;2023-04-04T09:17:49;93655.00;;;3.80;100.00
6136;BME280;24008;42.664;23.372;2023-04-04T09:20:35;93655.94;;;3.79;100.00
6136;BME280;24008;42.664;23.372;2023-04-04T09:23:04;93661.38;;;3.74;100.00
6136;BME280;24008;42.664;23.372;2023-04-04T09:25:32;93651.28;;;3.74;100.00
6136;BME280;24008;42.664;23.372;2023-04-04T09:27:59;93653.91;;;3.73;100.00
6136;BME280;24008;42.664;23.372;2023-04-04T09:30:27;93584.28;;;3.29;100.00
6136;BME280;24008;42.664;23.372;2023-04-04T09:32:54;93660.38;;;3.86;100.00
6136;BME280;24008;42.664;23.372;2023-04-04T09:35:22;93655.59;;;3.93;100.00
6136;BME280;24008;42.664;23.372;2023-04-04T09:37:49;93612.13;;;3.69;100.00
6136;BME280;24008;42.664;23.372;2023-04-04T09:40:18;93661.44;;;3.93;100.00
6136;BME280;24008;42.664;23.372;2023-04-04T09:42:45;93636.16;;;3.84;100.00
6136;BME280;24008;42.664;23.372;2023-04-04T09:45:13;93626.47;;;3.98;100.00
6136;BME280;24008;42.664;23.372;2023-04-04T09:47:40;93661.97;;;4.27;100.00
6136;BME280;24008;42.664;23.372;2023-04-04T09:50:09;93658.13;;;4.43;99.44
6136;BME280;24008;42.664;23.372;2023-04-04T09:52:40;93497.75;;;3.67;99.54
6136;BME280;24008;42.664;23.372;2023-04-04T09:55:09;93650.47;;;4.92;97.36
6136;BME280;24008;42.664;23.372;2023-04-04T09:57:37;93545.25;;;4.32;94.75
6136;BME280;24008;42.664;23.372;2023-04-04T10:00:07;93566.25;;;4.71;93.61
6136;BME280;24008;42.664;23.372;2023-04-04T10:02:36;93666.03;;;5.36;90.84
6136;BME280;24008;42.664;23.372;2023-04-04T10:05:03;93569.72;;;4.80;89.49
6136;BME280;24008;42.664;23.372;2023-04-04T10:07:31;93559.88;;;4.57;87.41
6136;BME280;24008;42.664;23.372;2023-04-04T10:10:00;93641.09;;;5.22;88.24
6136;BME280;24008;42.664;23.372;2023-04-04T10:12:29;93672.53;;;5.58;89.51
6136;BME280;24008;42.664;23.372;2023-04-04T10:14:57;93673.28;;;5.68;88.35
6136;BME280;24008;42.664;23.372;2023-04-04T10:17:29;93618.16;;;5.33;88.80
6136;BME280;24008;42.664;23.372;2023-04-04T10:19:59;93700.28;;;5.59;86.17
6136;BME280;24008;42.664;23.372;2023-04-04T10:22:26;93702.16;;;5.48;86.39
6136;BME280;24008;42.664;23.372;2023-04-04T10:24:54;93703.50;;;5.42;87.71
6136;BME280;24008;42.664;23.372;2023-04-04T10:27:20;93671.91;;;5.07;87.42
6136;BME280;24008;42.664;23.372;2023-04-04T10:29:47;93709.13;;;5.17;87.61
6136;BME280;24008;42.664;23.372;2023-04-04T10:32:23;93717.09;;;5.02;87.96
6136;BME280;24008;42.664;23.372;2023-04-04T10:34:57;93562.75;;;3.95;87.21
6136;BME280;24008;42.664;23.372;2023-04-04T10:37:27;93679.75;;;4.66;87.17
6136;BME280;24008;42.664;23.372;2023-04-04T10:40:01;93706.28;;;4.81;88.51
6136;BME280;24008;42.664;23.372;2023-04-04T10:42:35;93721.59;;;4.80;88.06
6136;BME280;24008;42.664;23.372;2023-04-04T10:45:06;93677.59;;;4.61;87.70
6136;BME280;24008;42.664;23.372;2023-04-04T10:47:35;93657.72;;;4.38;87.99
6136;BME280;24008;42.664;23.372;2023-04-04T10:50:03;93720.25;;;4.76;87.60
6136;BME280;24008;42.664;23.372;2023-04-04T10:52:32;93716.53;;;4.70;86.57
6136;BME280;24008;42.664;23.372;2023-04-04T10:55:02;93726.94;;;4.86;87.33
6136;BME280;24008;42.664;23.372;2023-04-04T10:57:31;93733.06;;;4.84;87.79
6136;BME280;24008;42.664;23.372;2023-04-04T11:00:01;93672.41;;;4.53;87.72
6136;BME280;24008;42.664;23.372;2023-04-04T11:02:46;93732.16;;;4.94;86.80
6136;BME280;24008;42.664;23.372;2023-04-04T11:05:17;93617.63;;;4.23;88.20
6136;BME280;24008;42.664;23.372;2023-04-04T11:07:45;93730.03;;;4.99;86.48
6136;BME280;24008;42.664;23.372;2023-04-04T11:10:13;93585.25;;;4.08;86.22
6136;BME280;24008;42.664;23.372;2023-04-04T11:12:43;93742.16;;;5.05;84.50
6136;BME280;24008;42.664;23.372;2023-04-04T11:15:11;93594.56;;;4.07;84.54
6136;BME280;24008;42.664;23.372;2023-04-04T11:17:58;93736.81;;;4.99;85.10
6136;BME280;24008;42.664;23.372;2023-04-04T11:20:33;93721.34;;;4.92;84.59
6136;BME280;24008;42.664;23.372;2023-04-04T11:23:08;93732.16;;;5.04;85.78
6136;BME280;24008;42.664;23.372;2023-04-04T11:25:38;93522.34;;;3.65;84.81
6136;BME280;24008;42.664;23.372;2023-04-04T11:28:07;93756.44;;;5.06;84.04
6136;BME280;24008;42.664;23.372;2023-04-04T11:30:40;93685.59;;;4.57;84.23
6136;BME280;24008;42.664;23.372;2023-04-04T11:33:11;93755.47;;;4.98;85.24
6136;BME280;24008;42.664;23.372;2023-04-04T11:35:39;93642.91;;;4.23;85.38
6136;BME280;24008;42.664;23.372;2023-04-04T11:38:12;93565.72;;;3.70;85.46
6136;BME280;24008;42.664;23.372;2023-04-04T11:40:40;93705.56;;;4.60;85.97
6136;BME280;24008;42.664;23.372;2023-04-04T11:43:09;93729.59;;;4.75;85.80
6136;BME280;24008;42.664;23.372;2023-04-04T11:45:42;93760.53;;;4.88;85.90
6136;BME280;24008;42.664;23.372;2023-04-04T11:48:12;93764.22;;;4.84;85.54
6136;BME280;24008;42.664;23.372;2023-04-04T11:50:40;93761.06;;;4.82;86.33
6136;BME280;24008;42.664;23.372;2023-04-04T11:53:09;93648.59;;;4.06;87.35
6136;BME280;24008;42.664;23.372;2023-04-04T11:55:41;93767.97;;;4.80;87.23
6136;BME280;24008;42.664;23.372;2023-04-04T11:58:09;93736.47;;;4.63;87.24
6136;BME280;24008;42.664;23.372;2023-04-04T12:00:37;93759.97;;;4.85;87.40
6136;BME280;24008;42.664;23.372;2023-04-04T12:03:07;93755.59;;;4.87;87.22
6136;BME280;24008;42.664;23.372;2023-04-04T12:05:37;93669.28;;;4.30;86.67
6136;BME280;24008;42.664;23.372;2023-04-04T12:08:06;93756.00;;;4.92;87.11
6136;BME280;24008;42.664;23.372;2023-04-04T12:10:34;93771.72;;;4.95;85.90
6136;BME280;24008;42.664;23.372;2023-04-04T12:13:03;93728.63;;;4.57;85.32
6136;BME280;24008;42.664;23.372;2023-04-04T12:15:33;93770.09;;;4.85;84.98
6136;BME280;24008;42.664;23.372;2023-04-04T12:18:00;93770.66;;;4.88;85.78
6136;BME280;24008;42.664;23.372;2023-04-04T12:20:28;93661.25;;;4.16;86.82
6136;BME280;24008;42.664;23.372;2023-04-04T12:22:56;93619.13;;;3.86;85.11
6136;BME280;24008;42.664;23.372;2023-04-04T12:25:23;93772.22;;;4.80;84.88
6136;BME280;24008;42.664;23.372;2023-04-04T12:27:53;93777.81;;;4.83;85.62
6136;BME280;24008;42.664;23.372;2023-04-04T12:30:20;93737.81;;;4.58;86.27
6136;BME280;24008;42.664;23.372;2023-04-04T12:32:48;93744.72;;;4.56;85.94
6136;BME280;24008;42.664;23.372;2023-04-04T12:35:16;93773.50;;;4.64;86.38
6136;BME280;24008;42.664;23.372;2023-04-04T12:37:58;93745.75;;;4.44;87.71
6136;BME280;24008;42.664;23.372;2023-04-04T12:40:31;93623.16;;;3.68;87.95
6136;BME280;24008;42.664;23.372;2023-04-04T12:43:00;93779.72;;;4.51;88.01
6136;BME280;24008;42.664;23.372;2023-04-04T12:45:27;93759.63;;;4.19;86.68
6136;BME280;24008;42.664;23.372;2023-04-04T12:47:55;93771.13;;;4.02;87.60
6136;BME280;24008;42.664;23.372;2023-04-04T12:50:24;93776.16;;;4.02;88.83
6136;BME280;24008;42.664;23.372;2023-04-04T12:52:52;93710.69;;;3.48;88.49
6136;BME280;24008;42.664;23.372;2023-04-04T12:55:22;93774.81;;;3.77;88.22
6136;BME280;24008;42.664;23.372;2023-04-04T12:57:49;93782.03;;;3.82;89.13
6136;BME280;24008;42.664;23.372;2023-04-04T13:00:19;93762.81;;;3.70;90.27
6136;BME280;24008;42.664;23.372;2023-04-04T13:02:48;93751.66;;;3.72;89.84
6136;BME280;24008;42.664;23.372;2023-04-04T13:05:15;93789.13;;;3.88;90.64
6136;BME280;24008;42.664;23.372;2023-04-04T13:07:44;93798.44;;;3.87;89.23
6136;BME280;24008;42.664;23.372;2023-04-04T13:10:13;93734.69;;;3.42;89.21